createdAt,value
2019-02-06T00:00:27.147Z,1.9
2019-02-06T00:01:26.589Z,1.89
2019-02-06T00:02:26.024Z,1.89
2019-02-06T00:03:26.184Z,1.85
2019-02-06T00:04:25.882Z,1.83
2019-02-06T00:05:25.758Z,1.85
2019-02-06T00:06:26.534Z,1.86
2019-02-06T00:07:25.860Z,1.87
2019-02-06T00:08:26.462Z,1.87
2019-02-06T00:09:26.145Z,1.85
2019-02-06T00:10:26.272Z,1.85
2019-02-06T00:11:25.645Z,1.83
2019-02-06T00:12:25.991Z,1.83
2019-02-06T00:13:26.232Z,1.83
2019-02-06T00:14:26.078Z,1.87
2019-02-06T00:15:26.446Z,1.85
2019-02-06T00:16:25.851Z,1.83
2019-02-06T00:17:26.339Z,1.87
2019-02-06T00:18:26.163Z,1.85
2019-02-06T00:19:25.765Z,1.83
2019-02-06T00:20:26.102Z,1.86
2019-02-06T00:21:26.735Z,1.85
2019-02-06T00:22:26.025Z,1.83
2019-02-06T00:23:26.324Z,1.83
2019-02-06T00:24:27.045Z,1.83
2019-02-06T00:25:27.583Z,1.82
2019-02-06T00:26:26.123Z,1.82
2019-02-06T00:27:26.042Z,1.85
2019-02-06T00:28:25.799Z,1.82
2019-02-06T00:29:25.927Z,1.81
2019-02-06T00:30:25.772Z,1.82
2019-02-06T00:31:25.762Z,1.82
2019-02-06T00:32:26.067Z,1.79
2019-02-06T00:33:26.072Z,1.81
2019-02-06T00:34:25.845Z,1.81
2019-02-06T00:35:26.448Z,1.81
2019-02-06T00:36:26.076Z,1.79
2019-02-06T00:37:25.727Z,1.76
2019-02-06T00:38:26.013Z,1.76
2019-02-06T00:39:26.768Z,1.78
2019-02-06T00:40:26.029Z,1.78
2019-02-06T00:41:26.025Z,1.76
2019-02-06T00:42:26.839Z,1.75
2019-02-06T00:43:25.851Z,1.76
2019-02-06T00:44:26.375Z,1.76
2019-02-06T00:45:25.695Z,1.75
2019-02-06T00:46:26.093Z,1.76
2019-02-06T00:47:25.735Z,1.73
2019-02-06T00:48:25.715Z,1.73
2019-02-06T00:49:25.723Z,1.78
2019-02-06T00:50:25.733Z,1.72
2019-02-06T00:51:25.969Z,1.73
2019-02-06T00:52:26.632Z,1.73
2019-02-06T00:53:25.916Z,1.68
2019-02-06T00:54:26.006Z,1.68
2019-02-06T00:55:25.669Z,1.66
2019-02-06T00:56:25.689Z,1.64
2019-02-06T00:57:25.873Z,1.65
2019-02-06T00:58:26.035Z,1.61
2019-02-06T00:59:26.028Z,1.62
2019-02-06T01:00:25.686Z,1.59
2019-02-06T01:01:25.666Z,1.62
2019-02-06T01:02:26.266Z,1.59
2019-02-06T01:03:25.761Z,1.55
2019-02-06T01:04:25.810Z,1.58
2019-02-06T01:05:39.001Z,1.55
2019-02-06T01:06:25.647Z,1.54
2019-02-06T01:07:26.589Z,1.5
2019-02-06T01:08:25.990Z,1.5
2019-02-06T01:09:25.646Z,1.48
2019-02-06T01:10:25.658Z,1.51
2019-02-06T01:11:25.758Z,1.5
2019-02-06T01:12:26.332Z,1.45
2019-02-06T01:13:25.653Z,1.45
2019-02-06T01:14:25.773Z,1.45
2019-02-06T01:15:26.579Z,1.4
2019-02-06T01:16:25.743Z,1.4
2019-02-06T01:17:26.170Z,1.4
2019-02-06T01:18:26.793Z,1.34
2019-02-06T01:19:26.376Z,1.34
2019-02-06T01:20:25.700Z,1.34
2019-02-06T01:21:25.766Z,1.36
2019-02-06T01:22:26.524Z,1.3
2019-02-06T01:23:26.402Z,1.28
2019-02-06T01:24:25.635Z,1.28
2019-02-06T01:25:26.106Z,1.26
2019-02-06T01:26:25.735Z,1.26
2019-02-06T01:27:25.647Z,1.26
2019-02-06T01:28:26.129Z,1.22
2019-02-06T01:29:26.134Z,1.22
2019-02-06T01:30:26.920Z,1.16
2019-02-06T01:31:25.776Z,1.15
2019-02-06T01:32:25.619Z,1.11
2019-02-06T01:33:25.628Z,1.15
2019-02-06T01:34:25.984Z,1.13
2019-02-06T01:35:25.771Z,1.07
2019-02-06T01:36:26.081Z,1.06
2019-02-06T01:37:26.313Z,1.06
2019-02-06T01:38:25.642Z,0.98
2019-02-06T01:39:25.992Z,0.98
2019-02-06T01:40:25.648Z,1.02
2019-02-06T01:41:25.717Z,0.98
2019-02-06T01:42:25.607Z,0.96
2019-02-06T01:43:26.014Z,0.93
2019-02-06T01:44:26.031Z,0.93
2019-02-06T01:45:26.673Z,0.92
2019-02-06T01:46:25.757Z,0.95
2019-02-06T01:47:25.801Z,0.92
2019-02-06T01:48:25.951Z,0.93
2019-02-06T01:49:25.795Z,0.93
2019-02-06T01:50:26.133Z,0.89
2019-02-06T01:51:25.885Z,0.89
2019-02-06T01:52:25.957Z,0.88
2019-02-06T01:53:25.861Z,0.86
2019-02-06T01:54:25.778Z,0.85
2019-02-06T01:55:26.009Z,0.81
2019-02-06T01:56:25.592Z,0.78
2019-02-06T01:57:25.908Z,0.79
2019-02-06T01:58:26.234Z,0.76
2019-02-06T01:59:25.637Z,0.78
2019-02-06T02:00:26.566Z,0.76
2019-02-06T02:01:25.685Z,0.76
2019-02-06T02:02:25.635Z,0.71
2019-02-06T02:03:25.572Z,0.72
2019-02-06T02:04:25.849Z,0.69
2019-02-06T02:05:25.687Z,0.67
2019-02-06T02:06:25.563Z,0.61
2019-02-06T02:07:26.740Z,0.64
2019-02-06T02:08:25.808Z,0.61
2019-02-06T02:09:25.603Z,0.63
2019-02-06T02:10:25.998Z,0.55
2019-02-06T02:11:25.656Z,0.57
2019-02-06T02:12:25.675Z,0.57
2019-02-06T02:13:25.772Z,0.58
2019-02-06T02:14:26.012Z,0.61
2019-02-06T02:15:26.460Z,0.61
2019-02-06T02:16:25.558Z,0.6
2019-02-06T02:17:25.653Z,0.64
2019-02-06T02:18:25.570Z,0.64
2019-02-06T02:19:25.556Z,0.65
2019-02-06T02:20:25.857Z,0.65
2019-02-06T02:21:25.960Z,0.68
2019-02-06T02:22:25.644Z,0.67
2019-02-06T02:23:26.105Z,0.67
2019-02-06T02:24:25.573Z,0.71
2019-02-06T02:25:25.537Z,0.65
2019-02-06T02:26:25.893Z,0.67
2019-02-06T02:27:25.594Z,0.65
2019-02-06T02:28:25.901Z,0.68
2019-02-06T02:29:25.892Z,0.67
2019-02-06T02:30:25.740Z,0.68
2019-02-06T02:31:25.667Z,0.69
2019-02-06T02:32:25.835Z,0.71
2019-02-06T02:33:25.560Z,0.72
2019-02-06T02:34:25.740Z,0.72
2019-02-06T02:35:25.536Z,0.75
2019-02-06T02:36:25.556Z,0.75
2019-02-06T02:37:25.565Z,0.76
2019-02-06T02:38:26.104Z,0.75
2019-02-06T02:39:25.525Z,0.79
2019-02-06T02:40:25.531Z,0.81
2019-02-06T02:41:25.611Z,0.81
2019-02-06T02:42:25.542Z,0.81
2019-02-06T02:43:25.526Z,0.82
2019-02-06T02:44:25.573Z,0.81
2019-02-06T02:45:25.562Z,0.79
2019-02-06T02:46:26.014Z,0.76
2019-02-06T02:47:25.549Z,0.75
2019-02-06T02:48:25.521Z,0.76
2019-02-06T02:49:25.607Z,0.76
2019-02-06T02:50:25.583Z,0.75
2019-02-06T02:51:25.592Z,0.75
2019-02-06T02:52:25.626Z,0.75
2019-02-06T02:53:25.489Z,0.74
2019-02-06T02:54:25.553Z,0.74
2019-02-06T02:55:25.780Z,0.72
2019-02-06T02:56:25.519Z,0.74
2019-02-06T02:57:25.545Z,0.74
2019-02-06T02:58:25.517Z,0.74
2019-02-06T02:59:25.619Z,0.74
2019-02-06T03:00:25.515Z,0.76
2019-02-06T03:01:26.045Z,0.75
2019-02-06T03:02:25.822Z,0.76
2019-02-06T03:03:25.527Z,0.76
2019-02-06T03:04:25.588Z,0.75
2019-02-06T03:05:25.635Z,0.72
2019-02-06T03:06:28.853Z,0.74
2019-02-06T03:07:25.734Z,0.74
2019-02-06T03:08:25.478Z,0.72
2019-02-06T03:09:26.510Z,0.76
2019-02-06T03:10:25.584Z,0.72
2019-02-06T03:11:25.552Z,0.76
2019-02-06T03:12:25.480Z,0.74
2019-02-06T03:13:25.543Z,0.72
2019-02-06T03:14:25.761Z,0.69
2019-02-06T03:15:25.825Z,0.71
2019-02-06T03:16:25.729Z,0.71
2019-02-06T03:17:25.831Z,0.67
2019-02-06T03:18:25.557Z,0.65
2019-02-06T03:19:25.476Z,0.64
2019-02-06T03:20:25.537Z,0.65
2019-02-06T03:21:25.587Z,0.64
2019-02-06T03:22:25.763Z,0.64
2019-02-06T03:23:25.473Z,0.64
2019-02-06T03:24:25.991Z,0.64
2019-02-06T03:25:25.562Z,0.6
2019-02-06T03:26:25.442Z,0.6
2019-02-06T03:27:25.520Z,0.57
2019-02-06T03:28:25.507Z,0.6
2019-02-06T03:29:25.700Z,0.58
2019-02-06T03:30:26.237Z,0.57
2019-02-06T03:31:25.650Z,0.54
2019-02-06T03:32:26.845Z,0.54
2019-02-06T03:33:25.471Z,0.51
2019-02-06T03:34:25.451Z,0.55
2019-02-06T03:35:26.246Z,0.53
2019-02-06T03:36:25.454Z,0.51
2019-02-06T03:37:25.497Z,0.48
2019-02-06T03:38:26.069Z,0.48
2019-02-06T03:39:25.541Z,0.46
2019-02-06T03:40:25.450Z,0.43
2019-02-06T03:41:25.582Z,0.44
2019-02-06T03:42:25.704Z,0.38
2019-02-06T03:43:25.713Z,0.38
2019-02-06T03:44:25.798Z,0.34
2019-02-06T03:45:25.561Z,0.34
2019-02-06T03:46:25.494Z,0.29
2019-02-06T03:47:26.432Z,0.26
2019-02-06T03:48:25.522Z,0.23
2019-02-06T03:49:25.481Z,0.22
2019-02-06T03:50:25.463Z,0.18
2019-02-06T03:51:25.618Z,0.16
2019-02-06T03:52:25.550Z,0.15
2019-02-06T03:53:25.413Z,0.16
2019-02-06T03:54:25.757Z,0.13
2019-02-06T03:55:25.714Z,0.08
2019-02-06T03:56:25.411Z,0.15
2019-02-06T03:57:25.449Z,0.12
2019-02-06T03:58:25.592Z,0.16
2019-02-06T03:59:25.915Z,0.2
2019-02-06T04:00:25.688Z,0.19
2019-02-06T04:01:25.396Z,0.2
2019-02-06T04:02:26.038Z,0.2
2019-02-06T04:03:25.422Z,0.16
2019-02-06T04:04:25.603Z,0.13
2019-02-06T04:05:25.850Z,0.13
2019-02-06T04:06:25.497Z,0.13
2019-02-06T04:07:25.636Z,0.15
2019-02-06T04:08:25.855Z,0.16
2019-02-06T04:09:25.477Z,0.2
2019-02-06T04:10:26.396Z,0.2
2019-02-06T04:11:25.583Z,0.19
2019-02-06T04:12:25.477Z,0.19
2019-02-06T04:13:25.524Z,0.18
2019-02-06T04:14:25.505Z,0.15
2019-02-06T04:15:25.411Z,0.12
2019-02-06T04:16:25.474Z,0.13
2019-02-06T04:17:25.506Z,0.1
2019-02-06T04:18:25.469Z,0.05
2019-02-06T04:19:25.374Z,0.03
2019-02-06T04:20:25.493Z,0.05
2019-02-06T04:21:25.645Z,0.05
2019-02-06T04:22:25.408Z,0.05
2019-02-06T04:23:25.386Z,0.1
2019-02-06T04:24:25.370Z,0.1
2019-02-06T04:25:26.395Z,0.12
2019-02-06T04:26:25.482Z,0.12
2019-02-06T04:27:25.399Z,0.15
2019-02-06T04:28:25.516Z,0.15
2019-02-06T04:29:25.356Z,0.13
2019-02-06T04:30:25.456Z,0.13
2019-02-06T04:31:25.393Z,0.18
2019-02-06T04:32:25.443Z,0.18
2019-02-06T04:33:26.550Z,0.22
2019-02-06T04:34:25.485Z,0.23
2019-02-06T04:35:25.433Z,0.22
2019-02-06T04:36:25.337Z,0.15
2019-02-06T04:37:25.449Z,0.12
2019-02-06T04:38:25.370Z,0.15
2019-02-06T04:39:25.493Z,0.16
2019-02-06T04:40:25.328Z,0.15
2019-02-06T04:41:25.413Z,0.16
2019-02-06T04:42:25.523Z,0.16
2019-02-06T04:43:25.349Z,0.15
2019-02-06T04:44:25.562Z,0.15
2019-02-06T04:45:25.334Z,0.15
2019-02-06T04:46:25.936Z,0.12
2019-02-06T04:47:25.346Z,0.09
2019-02-06T04:48:26.034Z,0.06
2019-02-06T04:49:25.600Z,0.02
2019-02-06T04:50:25.464Z,0.05
2019-02-06T04:51:25.681Z,0.02
2019-02-06T04:52:25.370Z,0.05
2019-02-06T04:53:25.372Z,0.01
2019-02-06T04:54:25.732Z,0.01
2019-02-06T04:55:25.662Z,0.02
2019-02-06T04:56:27.004Z,0.01
2019-02-06T04:57:25.422Z,-0.01
2019-02-06T04:58:25.486Z,-0.04
2019-02-06T04:59:25.776Z,-0.08
2019-02-06T05:00:25.399Z,-0.09
2019-02-06T05:01:26.417Z,-0.12
2019-02-06T05:02:25.823Z,-0.12
2019-02-06T05:03:26.259Z,-0.09
2019-02-06T05:04:25.413Z,-0.14
2019-02-06T05:05:25.487Z,-0.14
2019-02-06T05:06:25.330Z,-0.17
2019-02-06T05:07:25.628Z,-0.19
2019-02-06T05:08:25.465Z,-0.17
2019-02-06T05:09:25.705Z,-0.08
2019-02-06T05:10:25.299Z,-0.04
2019-02-06T05:11:26.819Z,-0.01
2019-02-06T05:12:25.570Z,0.02
2019-02-06T05:13:25.381Z,-0.04
2019-02-06T05:14:25.455Z,-0.02
2019-02-06T05:15:25.885Z,-0.04
2019-02-06T05:16:25.583Z,0.01
2019-02-06T05:17:25.411Z,0.01
2019-02-06T05:18:25.534Z,-0.01
2019-02-06T05:19:27.137Z,0.01
2019-02-06T05:20:25.728Z,-0.01
2019-02-06T05:21:25.405Z,-0.01
2019-02-06T05:22:25.295Z,0.03
2019-02-06T05:23:25.625Z,0.03
2019-02-06T05:24:25.632Z,-0.01
2019-02-06T05:25:25.438Z,-0.04
2019-02-06T05:26:26.182Z,-0.04
2019-02-06T05:27:25.551Z,-0.08
2019-02-06T05:28:25.408Z,-0.08
2019-02-06T05:29:25.335Z,-0.12
2019-02-06T05:30:25.270Z,-0.12
2019-02-06T05:31:25.573Z,-0.15
2019-02-06T05:32:25.479Z,-0.18
2019-02-06T05:33:25.579Z,-0.22
2019-02-06T05:34:25.417Z,-0.21
2019-02-06T05:35:25.599Z,-0.18
2019-02-06T05:36:25.609Z,-0.17
2019-02-06T05:37:32.593Z,-0.18
2019-02-06T05:38:25.475Z,-0.19
2019-02-06T05:39:25.534Z,-0.18
2019-02-06T05:40:25.641Z,-0.17
2019-02-06T05:41:26.075Z,-0.12
2019-02-06T05:42:25.556Z,-0.14
2019-02-06T05:43:25.477Z,-0.12
2019-02-06T05:44:25.360Z,-0.12
2019-02-06T05:45:25.287Z,-0.12
2019-02-06T05:46:25.597Z,-0.12
2019-02-06T05:47:25.310Z,-0.14
2019-02-06T05:48:25.302Z,-0.17
2019-02-06T05:49:25.272Z,-0.15
2019-02-06T05:50:25.445Z,-0.17
2019-02-06T05:51:25.237Z,-0.22
2019-02-06T05:52:25.303Z,-0.23
2019-02-06T05:53:25.232Z,-0.25
2019-02-06T05:54:25.241Z,-0.26
2019-02-06T05:55:25.589Z,-0.23
2019-02-06T05:56:26.379Z,-0.22
2019-02-06T05:57:25.552Z,-0.19
2019-02-06T05:58:25.279Z,-0.21
2019-02-06T05:59:25.246Z,-0.21
2019-02-06T06:00:25.207Z,-0.22
2019-02-06T06:01:25.327Z,-0.23
2019-02-06T06:02:25.488Z,-0.23
2019-02-06T06:03:25.205Z,-0.23
2019-02-06T06:04:25.239Z,-0.23
2019-02-06T06:05:25.414Z,-0.22
2019-02-06T06:06:25.215Z,-0.23
2019-02-06T06:07:25.208Z,-0.22
2019-02-06T06:08:25.212Z,-0.23
2019-02-06T06:09:25.238Z,-0.25
2019-02-06T06:10:25.244Z,-0.26
2019-02-06T06:11:25.971Z,-0.25
2019-02-06T06:12:25.210Z,-0.28
2019-02-06T06:13:25.217Z,-0.32
2019-02-06T06:14:25.391Z,-0.26
2019-02-06T06:15:25.221Z,-0.28
2019-02-06T06:16:25.242Z,-0.23
2019-02-06T06:17:25.243Z,-0.19
2019-02-06T06:18:25.631Z,-0.21
2019-02-06T06:19:25.563Z,-0.21
2019-02-06T06:20:25.487Z,-0.21
2019-02-06T06:21:25.220Z,-0.23
2019-02-06T06:22:25.178Z,-0.22
2019-02-06T06:23:25.919Z,-0.26
2019-02-06T06:24:25.645Z,-0.26
2019-02-06T06:25:25.548Z,-0.26
2019-02-06T06:26:26.167Z,-0.3
2019-02-06T06:27:25.231Z,-0.35
2019-02-06T06:28:25.443Z,-0.35
2019-02-06T06:29:25.306Z,-0.35
2019-02-06T06:30:25.198Z,-0.36
2019-02-06T06:31:25.175Z,-0.33
2019-02-06T06:32:25.325Z,-0.33
2019-02-06T06:33:25.906Z,-0.32
2019-02-06T06:34:25.504Z,-0.33
2019-02-06T06:35:25.487Z,-0.29
2019-02-06T06:36:25.184Z,-0.32
2019-02-06T06:37:25.178Z,-0.35
2019-02-06T06:38:25.330Z,-0.35
2019-02-06T06:39:25.301Z,-0.35
2019-02-06T06:40:25.373Z,-0.32
2019-02-06T06:41:26.267Z,-0.28
2019-02-06T06:42:25.170Z,-0.26
2019-02-06T06:43:25.355Z,-0.28
2019-02-06T06:44:25.209Z,-0.25
2019-02-06T06:45:25.197Z,-0.25
2019-02-06T06:46:27.027Z,-0.19
2019-02-06T06:47:25.219Z,-0.17
2019-02-06T06:48:25.279Z,-0.15
2019-02-06T06:49:25.190Z,-0.11
2019-02-06T06:50:25.491Z,-0.08
2019-02-06T06:51:25.493Z,-0.11
2019-02-06T06:52:27.004Z,-0.09
2019-02-06T06:53:25.246Z,-0.08
2019-02-06T06:54:25.612Z,-0.08
2019-02-06T06:55:25.619Z,-0.08
2019-02-06T06:56:25.754Z,-0.12
2019-02-06T06:57:25.119Z,-0.08
2019-02-06T06:58:25.419Z,-0.09
2019-02-06T06:59:25.173Z,-0.15
2019-02-06T07:00:25.778Z,-0.14
2019-02-06T07:01:25.215Z,-0.15
2019-02-06T07:02:25.350Z,-0.18
2019-02-06T07:03:25.673Z,-0.15
2019-02-06T07:04:26.313Z,-0.12
2019-02-06T07:05:25.377Z,-0.09
2019-02-06T07:06:25.187Z,-0.08
2019-02-06T07:07:25.592Z,-0.09
2019-02-06T07:08:25.185Z,-0.12
2019-02-06T07:09:25.163Z,-0.11
2019-02-06T07:10:25.314Z,-0.11
2019-02-06T07:11:25.471Z,-0.09
2019-02-06T07:12:26.367Z,-0.05
2019-02-06T07:13:25.534Z,-0.05
2019-02-06T07:14:25.163Z,-0.07
2019-02-06T07:15:25.552Z,-0.04
2019-02-06T07:16:25.449Z,-0.05
2019-02-06T07:17:26.977Z,-0.07
2019-02-06T07:18:25.357Z,-0.08
2019-02-06T07:19:25.737Z,-0.12
2019-02-06T07:20:25.091Z,-0.09
2019-02-06T07:21:25.114Z,-0.08
2019-02-06T07:22:25.266Z,-0.14
2019-02-06T07:23:26.615Z,-0.14
2019-02-06T07:24:25.091Z,-0.17
2019-02-06T07:25:25.101Z,-0.19
2019-02-06T07:26:25.407Z,-0.19
2019-02-06T07:27:25.645Z,-0.21
2019-02-06T07:28:25.096Z,-0.22
2019-02-06T07:29:25.092Z,-0.26
2019-02-06T07:30:25.066Z,-0.23
2019-02-06T07:31:25.080Z,-0.23
2019-02-06T07:32:25.226Z,-0.23
2019-02-06T07:33:26.948Z,-0.19
2019-02-06T07:34:25.429Z,-0.19
2019-02-06T07:35:25.076Z,-0.15
2019-02-06T07:36:25.888Z,-0.15
2019-02-06T07:37:25.124Z,-0.14
2019-02-06T07:38:25.413Z,-0.15
2019-02-06T07:39:25.226Z,-0.18
2019-02-06T07:40:25.401Z,-0.11
2019-02-06T07:41:25.308Z,-0.11
2019-02-06T07:42:25.846Z,-0.12
2019-02-06T07:43:25.214Z,-0.09
2019-02-06T07:44:25.059Z,-0.05
2019-02-06T07:45:25.050Z,-0.02
2019-02-06T07:46:25.188Z,-0.01
2019-02-06T07:47:25.062Z,-0.02
2019-02-06T07:48:25.095Z,-0.01
2019-02-06T07:49:25.049Z,-0.01
2019-02-06T07:50:25.488Z,0.03
2019-02-06T07:51:25.465Z,-0.01
2019-02-06T07:52:25.073Z,0.05
2019-02-06T07:53:25.049Z,0.03
2019-02-06T07:54:25.098Z,0.08
2019-02-06T07:55:25.227Z,0.1
2019-02-06T07:56:25.070Z,0.08
2019-02-06T07:57:25.636Z,0.09
2019-02-06T07:58:25.055Z,0.09
2019-02-06T07:59:25.061Z,0.1
2019-02-06T08:00:25.075Z,0.1
2019-02-06T08:01:25.047Z,0.13
2019-02-06T08:02:25.336Z,0.1
2019-02-06T08:03:25.037Z,0.1
2019-02-06T08:04:25.659Z,0.12
2019-02-06T08:05:25.894Z,0.12
2019-02-06T08:06:26.692Z,0.15
2019-02-06T08:07:25.065Z,0.13
2019-02-06T08:08:36.575Z,0.1
2019-02-06T08:09:25.013Z,0.13
2019-02-06T08:10:25.124Z,0.13
2019-02-06T08:11:25.021Z,0.15
2019-02-06T08:12:25.563Z,0.15
2019-02-06T08:13:25.366Z,0.16
2019-02-06T08:14:26.878Z,0.18
2019-02-06T08:15:25.044Z,0.16
2019-02-06T08:16:25.423Z,0.16
2019-02-06T08:17:25.537Z,0.18
2019-02-06T08:18:25.546Z,0.19
2019-02-06T08:19:25.267Z,0.22
2019-02-06T08:20:27.528Z,0.2
2019-02-06T08:21:25.121Z,0.22
2019-02-06T08:22:25.350Z,0.22
2019-02-06T08:23:25.079Z,0.23
2019-02-06T08:24:25.481Z,0.26
2019-02-06T08:25:25.259Z,0.29
2019-02-06T08:26:25.291Z,0.3
2019-02-06T08:27:26.683Z,0.33
2019-02-06T08:28:26.250Z,0.33
2019-02-06T08:29:25.632Z,0.37
2019-02-06T08:30:25.421Z,0.37
2019-02-06T08:31:25.070Z,0.38
2019-02-06T08:32:25.192Z,0.43
2019-02-06T08:33:25.328Z,0.43
2019-02-06T08:34:26.852Z,0.41
2019-02-06T08:35:25.305Z,0.41
2019-02-06T08:36:25.239Z,0.44
2019-02-06T08:37:24.991Z,0.46
2019-02-06T08:38:25.053Z,0.47
2019-02-06T08:39:26.198Z,0.5
2019-02-06T08:40:25.452Z,0.51
2019-02-06T08:41:24.981Z,0.48
2019-02-06T08:42:25.499Z,0.53
2019-02-06T08:43:25.478Z,0.54
2019-02-06T08:44:25.313Z,0.57
2019-02-06T08:45:25.006Z,0.6
2019-02-06T08:46:25.230Z,0.61
2019-02-06T08:47:25.748Z,0.65
2019-02-06T08:48:24.969Z,0.68
2019-02-06T08:49:25.065Z,0.67
2019-02-06T08:50:25.018Z,0.67
2019-02-06T08:51:25.666Z,0.65
2019-02-06T08:52:24.966Z,0.65
2019-02-06T08:53:24.961Z,0.68
2019-02-06T08:54:25.212Z,0.67
2019-02-06T08:55:25.279Z,0.69
2019-02-06T08:56:25.284Z,0.71
2019-02-06T08:57:25.301Z,0.72
2019-02-06T08:58:25.626Z,0.74
2019-02-06T08:59:25.307Z,0.76
2019-02-06T09:00:25.419Z,0.75
2019-02-06T09:01:25.187Z,0.81
2019-02-06T09:02:25.432Z,0.81
2019-02-06T09:03:25.125Z,0.83
2019-02-06T09:04:25.006Z,0.83
2019-02-06T09:05:25.206Z,0.85
2019-02-06T09:06:25.884Z,0.83
2019-02-06T09:07:25.095Z,0.86
2019-02-06T09:08:24.967Z,0.88
2019-02-06T09:09:25.487Z,0.86
2019-02-06T09:10:24.976Z,0.83
2019-02-06T09:11:25.200Z,0.86
2019-02-06T09:12:24.941Z,0.88
2019-02-06T09:13:25.062Z,0.86
2019-02-06T09:14:25.064Z,0.85
2019-02-06T09:15:27.808Z,0.85
2019-02-06T09:16:25.212Z,0.82
2019-02-06T09:17:24.958Z,0.81
2019-02-06T09:18:25.227Z,0.83
2019-02-06T09:19:25.372Z,0.88
2019-02-06T09:20:25.067Z,0.83
2019-02-06T09:21:25.676Z,0.89
2019-02-06T09:22:26.788Z,0.88
2019-02-06T09:23:24.910Z,0.89
2019-02-06T09:24:25.162Z,0.92
2019-02-06T09:25:25.187Z,0.92
2019-02-06T09:26:25.164Z,0.95
2019-02-06T09:27:25.017Z,0.98
2019-02-06T09:28:24.996Z,0.96
2019-02-06T09:29:25.727Z,0.99
2019-02-06T09:30:24.987Z,1.03
2019-02-06T09:31:24.953Z,1.04
2019-02-06T09:32:25.068Z,1.04
2019-02-06T09:33:24.969Z,1.06
2019-02-06T09:34:25.011Z,1.09
2019-02-06T09:35:25.019Z,1.1
2019-02-06T09:36:25.287Z,1.16
2019-02-06T09:37:24.966Z,1.16
2019-02-06T09:38:25.053Z,1.17
2019-02-06T09:39:24.935Z,1.19
2019-02-06T09:40:24.985Z,1.23
2019-02-06T09:41:24.934Z,1.26
2019-02-06T09:42:25.016Z,1.24
2019-02-06T09:43:27.701Z,1.27
2019-02-06T09:44:25.753Z,1.3
2019-02-06T09:45:24.989Z,1.31
2019-02-06T09:46:24.942Z,1.33
2019-02-06T09:47:24.947Z,1.33
2019-02-06T09:48:24.872Z,1.37
2019-02-06T09:49:25.135Z,1.38
2019-02-06T09:50:25.030Z,1.4
2019-02-06T09:51:25.354Z,1.43
2019-02-06T09:52:29.463Z,1.43
2019-02-06T09:53:24.912Z,1.44
2019-02-06T09:54:25.710Z,1.47
2019-02-06T09:55:24.995Z,1.48
2019-02-06T09:56:24.950Z,1.45
2019-02-06T09:57:25.032Z,1.5
2019-02-06T09:58:25.256Z,1.5
2019-02-06T09:59:26.028Z,1.51
2019-02-06T10:00:25.297Z,1.53
2019-02-06T10:01:25.750Z,1.5
2019-02-06T10:02:26.030Z,1.54
2019-02-06T10:03:25.103Z,1.53
2019-02-06T10:04:25.096Z,1.53
2019-02-06T10:05:24.874Z,1.58
2019-02-06T10:06:24.878Z,1.61
2019-02-06T10:07:24.868Z,1.61
2019-02-06T10:08:25.136Z,1.59
2019-02-06T10:09:25.977Z,1.62
2019-02-06T10:10:24.942Z,1.61
2019-02-06T10:11:25.057Z,1.64
2019-02-06T10:12:24.844Z,1.66
2019-02-06T10:13:25.034Z,1.68
2019-02-06T10:14:25.659Z,1.71
2019-02-06T10:15:24.963Z,1.76
2019-02-06T10:16:24.842Z,1.79
2019-02-06T10:17:24.827Z,1.79
2019-02-06T10:18:26.597Z,1.81
2019-02-06T10:19:25.159Z,1.83
2019-02-06T10:20:24.958Z,1.86
2019-02-06T10:21:25.011Z,1.81
2019-02-06T10:22:25.769Z,1.86
2019-02-06T10:23:24.831Z,1.87
2019-02-06T10:24:25.113Z,1.89
2019-02-06T10:25:25.147Z,1.87
2019-02-06T10:26:25.091Z,1.86
2019-02-06T10:27:25.056Z,1.87
2019-02-06T10:28:26.092Z,1.9
2019-02-06T10:29:24.907Z,1.94
2019-02-06T10:30:25.083Z,1.99
2019-02-06T10:31:25.104Z,1.97
2019-02-06T10:32:25.228Z,2
2019-02-06T10:33:25.063Z,2.06
2019-02-06T10:34:24.981Z,2.11
2019-02-06T10:35:25.109Z,2.11
2019-02-06T10:36:24.958Z,2.2
2019-02-06T10:37:25.457Z,2.26
2019-02-06T10:38:25.136Z,2.16
2019-02-06T10:39:34.983Z,2.22
2019-02-06T10:40:24.810Z,2.28
2019-02-06T10:41:24.999Z,2.34
2019-02-06T10:42:24.920Z,2.37
2019-02-06T10:43:36.068Z,2.41
2019-02-06T10:44:24.950Z,2.48
2019-02-06T10:45:25.612Z,2.52
2019-02-06T10:46:24.787Z,2.49
2019-02-06T10:47:24.829Z,2.52
2019-02-06T10:48:25.201Z,2.56
2019-02-06T10:49:25.330Z,2.59
2019-02-06T10:50:24.773Z,2.58
2019-02-06T10:51:24.937Z,2.58
2019-02-06T10:52:25.455Z,2.61
2019-02-06T10:53:24.823Z,2.66
2019-02-06T10:54:24.885Z,2.68
2019-02-06T10:55:24.773Z,2.71
2019-02-06T10:56:25.274Z,2.73
2019-02-06T10:57:24.851Z,2.77
2019-02-06T10:58:25.067Z,2.79
2019-02-06T10:59:24.789Z,2.82
2019-02-06T11:00:25.615Z,2.83
2019-02-06T11:01:25.291Z,2.83
2019-02-06T11:02:25.092Z,2.82
2019-02-06T11:03:24.920Z,2.89
2019-02-06T11:04:24.749Z,2.93
2019-02-06T11:05:24.762Z,2.97
2019-02-06T11:06:25.214Z,3
2019-02-06T11:07:25.237Z,3.03
2019-02-06T11:08:25.148Z,3.04
2019-02-06T11:09:25.360Z,3.06
2019-02-06T11:10:24.735Z,3.07
2019-02-06T11:11:24.954Z,3.04
2019-02-06T11:12:24.864Z,3.04
2019-02-06T11:13:25.054Z,3.08
2019-02-06T11:14:24.770Z,3.14
2019-02-06T11:15:25.617Z,3.2
2019-02-06T11:16:24.762Z,3.22
2019-02-06T11:17:24.748Z,3.27
2019-02-06T11:18:24.751Z,3.32
2019-02-06T11:19:24.741Z,3.32
2019-02-06T11:20:24.716Z,3.29
2019-02-06T11:21:25.215Z,3.34
2019-02-06T11:22:24.815Z,3.37
2019-02-06T11:23:25.556Z,3.39
2019-02-06T11:24:27.048Z,3.39
2019-02-06T11:25:24.761Z,3.44
2019-02-06T11:26:24.748Z,3.51
2019-02-06T11:27:24.769Z,3.56
2019-02-06T11:28:24.722Z,3.58
2019-02-06T11:29:25.162Z,3.61
2019-02-06T11:30:25.174Z,3.65
2019-02-06T11:31:24.731Z,3.69
2019-02-06T11:32:25.026Z,3.76
2019-02-06T11:33:25.082Z,3.73
2019-02-06T11:34:24.740Z,3.8
2019-02-06T11:35:24.948Z,3.86
2019-02-06T11:36:25.212Z,3.93
2019-02-06T11:37:24.734Z,3.96
2019-02-06T11:38:28.218Z,3.96
2019-02-06T11:39:25.032Z,3.98
2019-02-06T11:40:24.757Z,4.07
2019-02-06T11:41:24.913Z,4.12
2019-02-06T11:42:25.002Z,4.11
2019-02-06T11:43:24.698Z,4.12
2019-02-06T11:44:24.766Z,4.1
2019-02-06T11:45:25.089Z,4.1
2019-02-06T11:46:25.605Z,4.11
2019-02-06T11:47:24.804Z,4.17
2019-02-06T11:48:24.914Z,4.21
2019-02-06T11:49:24.765Z,4.28
2019-02-06T11:50:24.905Z,4.32
2019-02-06T11:51:26.549Z,4.28
2019-02-06T11:52:25.108Z,4.36
2019-02-06T11:53:26.760Z,4.39
2019-02-06T11:54:24.889Z,4.42
2019-02-06T11:55:24.838Z,4.53
2019-02-06T11:56:24.678Z,4.59
2019-02-06T11:57:25.208Z,4.62
2019-02-06T11:58:24.961Z,4.66
2019-02-06T11:59:24.952Z,4.74
2019-02-06T12:00:24.829Z,4.8
2019-02-06T12:01:25.704Z,4.86
2019-02-06T12:02:24.765Z,4.88
2019-02-06T12:03:24.739Z,4.91
2019-02-06T12:04:24.728Z,4.93
2019-02-06T12:05:25.098Z,4.97
2019-02-06T12:06:24.755Z,4.98
2019-02-06T12:07:24.678Z,4.97
2019-02-06T12:08:24.728Z,5.05
2019-02-06T12:09:25.861Z,5.1
2019-02-06T12:10:25.242Z,5.12
2019-02-06T12:11:25.133Z,5.16
2019-02-06T12:12:24.738Z,5.18
2019-02-06T12:13:24.938Z,5.19
2019-02-06T12:14:25.042Z,5.15
2019-02-06T12:15:24.960Z,5.1
2019-02-06T12:16:25.546Z,5.08
2019-02-06T12:17:24.740Z,5.12
2019-02-06T12:18:24.664Z,5.14
2019-02-06T12:19:25.690Z,5.16
2019-02-06T12:20:25.201Z,5.19
2019-02-06T12:21:24.650Z,5.23
2019-02-06T12:22:25.103Z,5.29
2019-02-06T12:23:32.708Z,5.33
2019-02-06T12:24:25.548Z,5.29
2019-02-06T12:25:25.124Z,5.36
2019-02-06T12:26:24.758Z,5.4
2019-02-06T12:27:25.036Z,5.43
2019-02-06T12:28:25.139Z,5.4
2019-02-06T12:29:25.051Z,5.39
2019-02-06T12:30:24.836Z,5.39
2019-02-06T12:31:25.083Z,5.43
2019-02-06T12:32:25.189Z,5.42
2019-02-06T12:33:24.787Z,5.5
2019-02-06T12:34:25.088Z,5.47
2019-02-06T12:35:24.650Z,5.53
2019-02-06T12:36:24.644Z,5.51
2019-02-06T12:37:24.648Z,5.53
2019-02-06T12:38:24.707Z,5.59
2019-02-06T12:39:24.617Z,5.66
2019-02-06T12:40:25.024Z,5.75
2019-02-06T12:41:24.768Z,5.8
2019-02-06T12:42:24.680Z,5.83
2019-02-06T12:43:24.685Z,5.84
2019-02-06T12:44:24.934Z,5.81
2019-02-06T12:45:25.379Z,5.92
2019-02-06T12:46:24.958Z,5.95
2019-02-06T12:47:27.067Z,5.98
2019-02-06T12:48:24.787Z,5.98
2019-02-06T12:49:24.620Z,6.08
2019-02-06T12:50:24.668Z,6.12
2019-02-06T12:51:24.656Z,6.09
2019-02-06T12:52:25.112Z,5.97
2019-02-06T12:53:29.734Z,5.94
2019-02-06T12:54:25.136Z,6.02
2019-02-06T12:55:24.789Z,6.13
2019-02-06T12:56:24.812Z,6.2
2019-02-06T12:57:37.661Z,6.26
2019-02-06T12:58:26.540Z,6.23
2019-02-06T12:59:24.864Z,6.25
2019-02-06T13:00:25.480Z,6.22
2019-02-06T13:01:24.670Z,6.13
2019-02-06T13:02:24.859Z,6.15
2019-02-06T13:03:25.195Z,6.16
2019-02-06T13:04:24.866Z,6.2
2019-02-06T13:05:25.798Z,6.15
2019-02-06T13:06:24.655Z,6.22
2019-02-06T13:07:24.786Z,6.25
2019-02-06T13:08:24.586Z,6.33
2019-02-06T13:09:24.570Z,6.35
2019-02-06T13:10:34.666Z,6.39
2019-02-06T13:11:24.661Z,6.46
2019-02-06T13:12:27.542Z,6.41
2019-02-06T13:13:24.643Z,6.37
2019-02-06T13:14:24.662Z,6.41